(°C)
25°
24°
22°
21°
19°
17°
16°
(°C)
20°
19°
18°
16°
15°
14°
13°
ЮЗ
ЮЮЗ
ЮЮЗ
ЮЮЗ
ЮЮЗ
ЮЮЗ
ЮЮЗ
(km/h)
21-41
18-38
17-35
16-31
15-28
14-28
13-27
(mm)
0
0
0
0
0
0
0
(%)
0
0
0
0
0
0
0

Издигане на слънцето

/ 9.5°
sun-icon
UV 4
06:48
19:29
Нарастваща полу-луна (124°)
17:54
00:25

METAR за 51.02°С 71.47°И (UACC)

Час Условия Температура/
Точка на оросяване
Вятър Видимост Времето Облаци Налягане Промяна Сурови
VFR 25°C / 1°C 210º 16kt >10km - Few Clouds 4300ft 1005 No Significant change. Runway 22: Clear and dry, , friction coefficient 0.70. UACC 161200Z 21008MPS 9999 FEW043CB 25/01 Q1005 R22/0///70 NOSIG RMK QFE723/0964
VFR 26°C / 1°C 220º 21kt >10km - Clouds and Visibility OK 1006 No Significant change. Runway 22: Clear and dry, , friction coefficient 0.70. UACC 161130Z 22011MPS CAVOK 26/01 Q1006 R22/0///70 NOSIG RMK QFE723/0964
VFR 27°C / 2°C 220º 17kt >10km - Clouds and Visibility OK 1006 No Significant change. Runway 22: Clear and dry, , friction coefficient 0.70. UACC 161100Z 22009MPS CAVOK 27/02 Q1006 R22/0///70 NOSIG RMK QFE723/0965
VFR 26°C / 2°C 220º 19kt >10km - Clouds and Visibility OK 1006 No Significant change. Runway 22: Clear and dry, , friction coefficient 0.70. UACC 161030Z 22010MPS CAVOK 26/02 Q1006 R22/0///70 NOSIG RMK QFE724/0965
VFR 27°C / 3°C 210º 17kt >10km - Clouds and Visibility OK 1007 No Significant change. Runway 22: Clear and dry, , friction coefficient 0.70. UACC 161000Z 21009MPS CAVOK 27/03 Q1007 R22/0///70 NOSIG RMK QFE724/0965
VFR 26°C / 3°C 220º 16kt >10km - Clouds and Visibility OK 1007 No Significant change. Runway 22: Clear and dry, , friction coefficient 0.70. UACC 160930Z 22008MPS CAVOK 26/03 Q1007 R22/0///70 NOSIG RMK QFE724/0966
VFR 26°C / 3°C 200º 19kt >10km - Clouds and Visibility OK 1007 No Significant change. Runway 22: Clear and dry, , friction coefficient 0.70. UACC 160900Z 20010MPS CAVOK 26/03 Q1007 R22/0///70 NOSIG RMK QFE724/0966
VFR 26°C / 3°C 200º 16kt >10km - Clouds and Visibility OK 1008 No Significant change. Runway 22: Clear and dry, , friction coefficient 0.70. UACC 160830Z 20008MPS CAVOK 26/03 Q1008 R22/0///70 NOSIG RMK QFE725/0966
VFR 25°C / 4°C 220º variable 180º to 240º 16kt >10km - Clouds and Visibility OK 1008 No Significant change. Runway 22: Clear and dry, , friction coefficient 0.70. UACC 160800Z 22008MPS 180V240 CAVOK 25/04 Q1008 R22/0///70 NOSIG RMK QFE725/0967
VFR 25°C / 4°C 210º variable 170º to 230º 16kt >10km - Clouds and Visibility OK 1008 No Significant change. Runway 22: Clear and dry, , friction coefficient 0.70. UACC 160730Z 21008MPS 170V230 CAVOK 25/04 Q1008 R22/0///70 NOSIG RMK QFE725/0967
VFR 24°C / 2°C 210º 14kt >10km - Clouds and Visibility OK 1009 No Significant change. Runway 22: Clear and dry, , friction coefficient 0.70. UACC 160700Z 21007MPS CAVOK 24/02 Q1009 R22/0///70 NOSIG RMK QFE726/0968
VFR 23°C / 2°C 210º variable 180º to 240º 12kt >10km - Clouds and Visibility OK 1009 No Significant change. Runway 22: Clear and dry, , friction coefficient 0.70. UACC 160630Z 21006MPS 180V240 CAVOK 23/02 Q1009 R22/0///70 NOSIG RMK QFE726/0968
VFR 22°C / 2°C 220º 14kt >10km - Clouds and Visibility OK 1009 No Significant change. Runway 22: Clear and dry, , friction coefficient 0.70. UACC 160600Z 22007MPS CAVOK 22/02 Q1009 R22/0///70 NOSIG RMK QFE726/0968
VFR 21°C / 1°C 200º 12kt >10km - Clouds and Visibility OK 1010 No Significant change. Runway 22: Clear and dry, , friction coefficient 0.70. UACC 160530Z 20006MPS CAVOK 21/01 Q1010 R22/0///70 NOSIG RMK QFE726/0968
VFR 20°C / 1°C 200º 12kt >10km - Clouds and Visibility OK 1010 No Significant change. Runway 22: Clear and dry, , friction coefficient 0.70. UACC 160500Z 20006MPS CAVOK 20/01 Q1010 R22/0///70 NOSIG RMK QFE726/0969
VFR 18°C / 5°C 160º 10kt >10km - Clouds and Visibility OK 1010 No Significant change. Runway 22: Clear and dry, , friction coefficient 0.70. UACC 160430Z 16005MPS CAVOK 18/05 Q1010 R22/0///70 NOSIG RMK QFE726/0969
VFR 17°C / 5°C 170º 8kt >10km - Clouds and Visibility OK 1010 No Significant change. Runway 22: Clear and dry, , friction coefficient 0.70. UACC 160400Z 17004MPS CAVOK 17/05 Q1010 R22/0///70 NOSIG RMK QFE726/0969
VFR 14°C / 4°C 170º 8kt >10km - Clouds and Visibility OK 1010 No Significant change. Runway 22: Clear and dry, , friction coefficient 0.70. UACC 160330Z 17004MPS CAVOK 14/04 Q1010 R22/0///70 NOSIG RMK QFE726/0969
VFR 12°C / 4°C 170º variable 150º to 210º 6kt >10km - Clouds and Visibility OK 1010 No Significant change. Runway 22: Clear and dry, , friction coefficient 0.70. UACC 160300Z 17003MPS 150V210 CAVOK 12/04 Q1010 R22/0///70 NOSIG RMK QFE727/0969
VFR 11°C / 3°C 190º 6kt >10km - Clouds and Visibility OK 1010 No Significant change. Runway 22: Clear and dry, , friction coefficient 0.70. UACC 160230Z 19003MPS CAVOK 11/03 Q1010 R22/0///70 NOSIG RMK QFE727/0969
VFR 9°C / 3°C 190º 4kt >10km - Clouds and Visibility OK 1010 No Significant change. Runway 22: Clear and dry, , friction coefficient 0.70. UACC 160200Z 19002MPS CAVOK 09/03 Q1010 R22/0///70 NOSIG RMK QFE727/0969
VFR 8°C / 3°C 190º 6kt >10km - Clouds and Visibility OK 1010 No Significant change. Runway 22: Clear and dry, , friction coefficient 0.70. UACC 160130Z 19003MPS CAVOK 08/03 Q1010 R22/0///70 NOSIG RMK QFE727/0969
VFR 8°C / 3°C 190º 4kt >10km - Clouds and Visibility OK 1010 No Significant change. Runway 22: Clear and dry, , friction coefficient 0.70. UACC 160100Z 19002MPS CAVOK 08/03 Q1010 R22/0///70 NOSIG RMK QFE726/0969
VFR 9°C / 3°C 200º 6kt >10km - Clouds and Visibility OK 1010 No Significant change. Runway 22: Clear and dry, , friction coefficient 0.70. UACC 160030Z 20003MPS CAVOK 09/03 Q1010 R22/0///70 NOSIG RMK QFE727/0969

VFR

25°C / 1°C

[Още]
Вятър 210º 16kt
Видимост >10km
Времето -
Облаци Few Clouds 4300ft
Налягане 1005
Промяна No Significant change. Runway 22: Clear and dry, , friction coefficient 0.70.
Сурови UACC 161200Z 21008MPS 9999 FEW043CB 25/01 Q1005 R22/0///70 NOSIG RMK QFE723/0964

VFR

26°C / 1°C

[Още]
Вятър 220º 21kt
Видимост >10km
Времето -
Облаци Clouds and Visibility OK
Налягане 1006
Промяна No Significant change. Runway 22: Clear and dry, , friction coefficient 0.70.
Сурови UACC 161130Z 22011MPS CAVOK 26/01 Q1006 R22/0///70 NOSIG RMK QFE723/0964

VFR

27°C / 2°C

[Още]
Вятър 220º 17kt
Видимост >10km
Времето -
Облаци Clouds and Visibility OK
Налягане 1006
Промяна No Significant change. Runway 22: Clear and dry, , friction coefficient 0.70.
Сурови UACC 161100Z 22009MPS CAVOK 27/02 Q1006 R22/0///70 NOSIG RMK QFE723/0965

VFR

26°C / 2°C

[Още]
Вятър 220º 19kt
Видимост >10km
Времето -
Облаци Clouds and Visibility OK
Налягане 1006
Промяна No Significant change. Runway 22: Clear and dry, , friction coefficient 0.70.
Сурови UACC 161030Z 22010MPS CAVOK 26/02 Q1006 R22/0///70 NOSIG RMK QFE724/0965

VFR

27°C / 3°C

[Още]
Вятър 210º 17kt
Видимост >10km
Времето -
Облаци Clouds and Visibility OK
Налягане 1007
Промяна No Significant change. Runway 22: Clear and dry, , friction coefficient 0.70.
Сурови UACC 161000Z 21009MPS CAVOK 27/03 Q1007 R22/0///70 NOSIG RMK QFE724/0965

VFR

26°C / 3°C

[Още]
Вятър 220º 16kt
Видимост >10km
Времето -
Облаци Clouds and Visibility OK
Налягане 1007
Промяна No Significant change. Runway 22: Clear and dry, , friction coefficient 0.70.
Сурови UACC 160930Z 22008MPS CAVOK 26/03 Q1007 R22/0///70 NOSIG RMK QFE724/0966

VFR

26°C / 3°C

[Още]
Вятър 200º 19kt
Видимост >10km
Времето -
Облаци Clouds and Visibility OK
Налягане 1007
Промяна No Significant change. Runway 22: Clear and dry, , friction coefficient 0.70.
Сурови UACC 160900Z 20010MPS CAVOK 26/03 Q1007 R22/0///70 NOSIG RMK QFE724/0966

VFR

26°C / 3°C

[Още]
Вятър 200º 16kt
Видимост >10km
Времето -
Облаци Clouds and Visibility OK
Налягане 1008
Промяна No Significant change. Runway 22: Clear and dry, , friction coefficient 0.70.
Сурови UACC 160830Z 20008MPS CAVOK 26/03 Q1008 R22/0///70 NOSIG RMK QFE725/0966

VFR

25°C / 4°C

[Още]
Вятър 220º variable 180º to 240º 16kt
Видимост >10km
Времето -
Облаци Clouds and Visibility OK
Налягане 1008
Промяна No Significant change. Runway 22: Clear and dry, , friction coefficient 0.70.
Сурови UACC 160800Z 22008MPS 180V240 CAVOK 25/04 Q1008 R22/0///70 NOSIG RMK QFE725/0967

VFR

25°C / 4°C

[Още]
Вятър 210º variable 170º to 230º 16kt
Видимост >10km
Времето -
Облаци Clouds and Visibility OK
Налягане 1008
Промяна No Significant change. Runway 22: Clear and dry, , friction coefficient 0.70.
Сурови UACC 160730Z 21008MPS 170V230 CAVOK 25/04 Q1008 R22/0///70 NOSIG RMK QFE725/0967

VFR

24°C / 2°C

[Още]
Вятър 210º 14kt
Видимост >10km
Времето -
Облаци Clouds and Visibility OK
Налягане 1009
Промяна No Significant change. Runway 22: Clear and dry, , friction coefficient 0.70.
Сурови UACC 160700Z 21007MPS CAVOK 24/02 Q1009 R22/0///70 NOSIG RMK QFE726/0968

VFR

23°C / 2°C

[Още]
Вятър 210º variable 180º to 240º 12kt
Видимост >10km
Времето -
Облаци Clouds and Visibility OK
Налягане 1009
Промяна No Significant change. Runway 22: Clear and dry, , friction coefficient 0.70.
Сурови UACC 160630Z 21006MPS 180V240 CAVOK 23/02 Q1009 R22/0///70 NOSIG RMK QFE726/0968

VFR

22°C / 2°C

[Още]
Вятър 220º 14kt
Видимост >10km
Времето -
Облаци Clouds and Visibility OK
Налягане 1009
Промяна No Significant change. Runway 22: Clear and dry, , friction coefficient 0.70.
Сурови UACC 160600Z 22007MPS CAVOK 22/02 Q1009 R22/0///70 NOSIG RMK QFE726/0968

VFR

21°C / 1°C

[Още]
Вятър 200º 12kt
Видимост >10km
Времето -
Облаци Clouds and Visibility OK
Налягане 1010
Промяна No Significant change. Runway 22: Clear and dry, , friction coefficient 0.70.
Сурови UACC 160530Z 20006MPS CAVOK 21/01 Q1010 R22/0///70 NOSIG RMK QFE726/0968

VFR

20°C / 1°C

[Още]
Вятър 200º 12kt
Видимост >10km
Времето -
Облаци Clouds and Visibility OK
Налягане 1010
Промяна No Significant change. Runway 22: Clear and dry, , friction coefficient 0.70.
Сурови UACC 160500Z 20006MPS CAVOK 20/01 Q1010 R22/0///70 NOSIG RMK QFE726/0969

VFR

18°C / 5°C

[Още]
Вятър 160º 10kt
Видимост >10km
Времето -
Облаци Clouds and Visibility OK
Налягане 1010
Промяна No Significant change. Runway 22: Clear and dry, , friction coefficient 0.70.
Сурови UACC 160430Z 16005MPS CAVOK 18/05 Q1010 R22/0///70 NOSIG RMK QFE726/0969

VFR

17°C / 5°C

[Още]
Вятър 170º 8kt
Видимост >10km
Времето -
Облаци Clouds and Visibility OK
Налягане 1010
Промяна No Significant change. Runway 22: Clear and dry, , friction coefficient 0.70.
Сурови UACC 160400Z 17004MPS CAVOK 17/05 Q1010 R22/0///70 NOSIG RMK QFE726/0969

VFR

14°C / 4°C

[Още]
Вятър 170º 8kt
Видимост >10km
Времето -
Облаци Clouds and Visibility OK
Налягане 1010
Промяна No Significant change. Runway 22: Clear and dry, , friction coefficient 0.70.
Сурови UACC 160330Z 17004MPS CAVOK 14/04 Q1010 R22/0///70 NOSIG RMK QFE726/0969

VFR

12°C / 4°C

[Още]
Вятър 170º variable 150º to 210º 6kt
Видимост >10km
Времето -
Облаци Clouds and Visibility OK
Налягане 1010
Промяна No Significant change. Runway 22: Clear and dry, , friction coefficient 0.70.
Сурови UACC 160300Z 17003MPS 150V210 CAVOK 12/04 Q1010 R22/0///70 NOSIG RMK QFE727/0969

VFR

11°C / 3°C

[Още]
Вятър 190º 6kt
Видимост >10km
Времето -
Облаци Clouds and Visibility OK
Налягане 1010
Промяна No Significant change. Runway 22: Clear and dry, , friction coefficient 0.70.
Сурови UACC 160230Z 19003MPS CAVOK 11/03 Q1010 R22/0///70 NOSIG RMK QFE727/0969

VFR

9°C / 3°C

[Още]
Вятър 190º 4kt
Видимост >10km
Времето -
Облаци Clouds and Visibility OK
Налягане 1010
Промяна No Significant change. Runway 22: Clear and dry, , friction coefficient 0.70.
Сурови UACC 160200Z 19002MPS CAVOK 09/03 Q1010 R22/0///70 NOSIG RMK QFE727/0969

VFR

8°C / 3°C

[Още]
Вятър 190º 6kt
Видимост >10km
Времето -
Облаци Clouds and Visibility OK
Налягане 1010
Промяна No Significant change. Runway 22: Clear and dry, , friction coefficient 0.70.
Сурови UACC 160130Z 19003MPS CAVOK 08/03 Q1010 R22/0///70 NOSIG RMK QFE727/0969

VFR

8°C / 3°C

[Още]
Вятър 190º 4kt
Видимост >10km
Времето -
Облаци Clouds and Visibility OK
Налягане 1010
Промяна No Significant change. Runway 22: Clear and dry, , friction coefficient 0.70.
Сурови UACC 160100Z 19002MPS CAVOK 08/03 Q1010 R22/0///70 NOSIG RMK QFE726/0969

VFR

9°C / 3°C

[Още]
Вятър 200º 6kt
Видимост >10km
Времето -
Облаци Clouds and Visibility OK
Налягане 1010
Промяна No Significant change. Runway 22: Clear and dry, , friction coefficient 0.70.
Сурови UACC 160030Z 20003MPS CAVOK 09/03 Q1010 R22/0///70 NOSIG RMK QFE727/0969

TAF за 51.02°С 71.47°И (UACC)

From till


Maximum Temperature 24ºC on . Minimum Temperature 10ºC on .
From till Wind 200º 16kt. Gust 25kt. Visibility 10km or more. Scattered Clouds 4000ft. Broken Clouds 10000ft.
Temporarly from till Wind 220º 19kt. Gust 29kt. Scattered Clouds 3000ft.
From till Wind 200º 12kt. Visibility 10km or more. Scattered Clouds 2000ft. Broken Clouds 5000ft.
Temporarly from till Wind 220º 14kt. Light Showers Rain . Scattered Clouds 1100ft. Broken Clouds 2000ft.
Becoming from till Wind 230º 16kt. Visibility 10km or more. Scattered Clouds 3000ft. Broken Clouds 5000ft.
Temporarly from till Wind 240º 17kt. Gust 27kt. Visibility 3100m. Light Showers Rain . Broken Clouds 2000ft.

Сурови: TAF UACC 161100Z 1612/1712 20008G13MPS 9999 SCT040 BKN100 TX24/1612Z TN10/1701Z TEMPO 1612/1615 22010G15MPS SCT030CB FM161500 20006MPS 9999 SCT020 BKN050 TEMPO 1615/1702 22007MPS -SHRA SCT011 BKN020CB BECMG 1702/1704 23008MPS SCT030CB BKN050 TEMPO 1704/1712 24009G14MPS 3100 -SHRA BKN020CB

Актуални сателитни и дъждовни снимки за 51.02°С 71.47°И

Маркерът за локация е поставен върху 51.02°С 71.47°И. [Още]

Сателитното изображение в реално време съчетава видимата светлина през деня с инфрачервеното лъчение през нощта. През нощта изображението не е тъмно, тъй като инфрачервеното лъчение може да открива температурни разлики. За съжаление ниските облаци и мъглата са трудни за разграничаване от температурите на земята и затова могат да бъдат почти невидими през нощта. Сателитните изображения на Meteosat за Европа се актуализират в реално време на всеки 5 минути. Изображенията GOES-16/GOES-17 (Северна и Южна Америка) и Химавари (Азия) се актуализират на всеки 10 минути.

Всички права запазени 2021 EUMETSAT / meteoblue. / Всички права запазени 2021 meteoblue

Радар и валежи в момента за 51.02°С 71.47°И

Капчица
Лек
Умерен
Тежък
Много тежък
Аве

Маркерът за локация обозначава 51.02°С 71.47°И. Анимацията показва Радара за валежи за последния час, както и прогноза за 1h. Дъждът или лекият сняг може да са невидими за радара. Интензивността на валежите е обозначена с цветни кодове, вариращи от светлосиньо до оранжево.